सभी
Karumba Airport (Karumba, Queensland) KRB मौसम
There is no TAF data available at KRB. Showing TAF data for YNTN (22 mi SE).
NTN Terminal Area Forecast (no data for KRB)
| Date | Time (AEST) | Flight Rules | Wind Dir. | Speed | Type | Height AGL (ft) | Visibility | Remarks | ||||||
|---|---|---|---|---|---|---|---|---|---|---|---|---|---|---|
| 05-मई | 17:00 | VFR | 160° | 7 kt | Clouds and Visibility are OK | >= 6 miles | ||||||||
| 05-मई | 16:00 | VFR | 120° | 11 kt | Clouds and Visibility are OK | >= 6 miles | ||||||||
| 05-मई | 15:00 | VFR | 120° | 11 kt | Clouds and Visibility are OK | >= 6 miles | ||||||||
| 05-मई | 14:00 | VFR | 120° | 11 kt | Clouds and Visibility are OK | >= 6 miles | ||||||||
| 05-मई | 13:00 | VFR | 120° | 11 kt | Clouds and Visibility are OK | >= 6 miles | ||||||||
| 05-मई | 12:00 | VFR | 120° | 11 kt | Clouds and Visibility are OK | >= 6 miles | ||||||||
| 05-मई | 11:00 | VFR | 120° | 11 kt | Clouds and Visibility are OK | >= 6 miles | ||||||||
| 05-मई | 10:00 | VFR | 120° | 11 kt | Clouds and Visibility are OK | >= 6 miles | ||||||||
| 05-मई | 09:00 | VFR | 150° | 7 kt | Clouds and Visibility are OK | >= 6 miles | ||||||||
| 05-मई | 08:00 | VFR | 150° | 7 kt | Clouds and Visibility are OK | >= 6 miles | ||||||||
| 05-मई | 07:00 | VFR | 150° | 7 kt | Clouds and Visibility are OK | >= 6 miles | ||||||||
| 05-मई | 06:00 | VFR | 150° | 7 kt | Clouds and Visibility are OK | >= 6 miles | ||||||||
There is no METAR data available at KRB. Showing METAR data for YNTN (22 mi SE).
Recent NTN METAR history (no data for KRB)
| Date | Time (AEST) | Flight Rules | Wind Dir. | Speed | Type | Height AGL (ft) | Visibility | Temp (°C) | Temp (°F) | Dew Point (°C) | Dew Point (°F) | Rel. Humid. | Pressure | Density Altitude | Remarks |
|---|---|---|---|---|---|---|---|---|---|---|---|---|---|---|---|
| 05-मई | 05:00 | VFR | 170° | 14 kt | 10000 meters | 23° | 73° | 15° | 59° | 61% | 1013 mb | 1,039 ft | |||
| 05-मई | 04:00 | VFR | 170° | 14 kt | 10000 meters | 24° | 75° | 15° | 59° | 57% | 1013 mb | 1,159 ft | |||
| 05-मई | 03:00 | VFR | 180° | 11 kt | 10000 meters | 23° | 73° | 14° | 57° | 57% | 1013 mb | 1,039 ft | |||
| 05-मई | 02:00 | VFR | 180° | 13 kt | 10000 meters | 24° | 75° | 14° | 57° | 54% | 1013 mb | 1,159 ft | |||
| 05-मई | 01:00 | VFR | 190° | 15 kt | 10000 meters | 25° | 77° | 14° | 57° | 50% | 1014 mb | 1,250 ft | |||
| 05-मई | 00:00 | VFR | 190° | 13 kt | 10000 meters | 26° | 78° | 16° | 60° | 54% | 1013 mb | 1,399 ft | |||
| 04-मई | 23:00 | VFR | 190° | 7 kt | 10000 meters | 27° | 80° | 17° | 62° | 54% | 1013 mb | 1,519 ft | |||
| 04-मई | 22:00 | VFR | 190° | 6 kt | 10000 meters | 26° | 78° | 17° | 62° | 58% | 1013 mb | 1,399 ft | |||
| 04-मई | 21:00 | VFR | 180° | 6 kt | 10000 meters | 27° | 80° | 17° | 62° | 54% | 1013 mb | 1,519 ft | |||
| 04-मई | 20:00 | VFR | 170° | 5 kt | 10000 meters | 28° | 82° | 17° | 62° | 51% | 1012 mb | 1,669 ft | |||
| 04-मई | 19:00 | VFR | 170° | 3 kt | 10000 meters | 29° | 84° | 17° | 62° | 48% | 1012 mb | 1,789 ft | |||
| 04-मई | 18:00 | VFR | 130° | 4 kt | 10000 meters | 31° | 87° | 17° | 62° | 43% | 1011 mb | 2,058 ft | |||
| 04-मई | 17:00 | VFR | 150° | 7 kt | 10000 meters | 33° | 91° | 16° | 60° | 36% | 1010 mb | 2,328 ft | |||
| 04-मई | 16:00 | VFR | 130° | 5 kt | 10000 meters | 34° | 93° | 17° | 62° | 36% | 1010 mb | 2,448 ft | |||
| 04-मई | 15:00 | VFR | 130° | 6 kt | 10000 meters | 33° | 91° | 16° | 60° | 36% | 1010 mb | 2,328 ft | |||
| 04-मई | 14:00 | VFR | 110° | 5 kt | 10000 meters | 34° | 93° | 18° | 64° | 39% | 1011 mb | 2,418 ft | |||
| 04-मई | 13:00 | VFR | 60° | 5 kt | 10000 meters | 33° | 91° | 19° | 66° | 44% | 1012 mb | 2,269 ft | |||
| 04-मई | 12:00 | VFR | 70° | 5 kt | 10000 meters | 32° | 89° | 19° | 66° | 46% | 1012 mb | 2,149 ft | |||
| 04-मई | 11:00 | VFR | 60° | 5 kt | 10000 meters | 30° | 86° | 19° | 66° | 52% | 1013 mb | 1,879 ft | |||
| 04-मई | 10:00 | VFR | 70° | 7 kt | 10000 meters | 28° | 82° | 19° | 66° | 58% | 1013 mb | 1,639 ft | |||
| 04-मई | 09:00 | VFR | 110° | 6 kt | 10000 meters | 26° | 78° | 19° | 66° | 65% | 1013 mb | 1,399 ft | |||
| 04-मई | 08:00 | VFR | 170° | 7 kt | 10000 meters | 24° | 75° | 20° | 68° | 78% | 1013 mb | 1,159 ft | |||
| 04-मई | 07:00 | VFR | 190° | 6 kt | 10000 meters | 22° | 71° | 21° | 69° | 94% | 1012 mb | 949 ft | |||
| 04-मई | 06:00 | VFR | 180° | 7 kt | 10000 meters | 23° | 73° | 21° | 69° | 89% | 1011 mb | 1,098 ft |
लॉगिन
| Your browser is unsupported. अपना ब्राऊजर अपग्रेड करें |
